| Date | Time | Temp. (oF) | Dew Point (oF) | Rel. Hum. (%) | Press. (in.) | Wind Dir. (deg.) | Wind Speed (mph) | Hourly Rainfall (i n.) |
|
|---|---|---|---|---|---|---|---|---|---|
| 1 | 07/14 | 24:00 | 69 | 59 | 73 | 30.38 | 130 | 0 | 0.00 |
| 2 | 07/13 | 23:00 | 70 | 59 | 69 | 30.36 | 120 | 6 | 0.00 |
| 3 | 07/13 | 22:00 | 71 | 57 | 62 | 30.35 | 130 | 2 | 0.00 |
| 4 | 07/13 | 21:00 | 73 | 55 | 55 | 30.32 | 140 | 1 | 0.00 |
| 5 | 07/13 | 20:00 | 76 | 54 | 47 | 30.27 | 150 | 2 | 0.00 |
| 6 | 07/13 | 19:00 | 78 | 52 | 42 | 30.26 | 150 | 4 | 0.00 |
| 7 | 07/13 | 18:00 | 79 | 53 | 41 | 30.28 | 130 | 4 | 0.00 |
| 8 | 07/13 | 17:00 | 80 | 54 | 42 | 30.28 | 130 | 1 | 0.00 |
| 9 | 07/13 | 16:00 | 80 | 55 | 44 | 30.28 | 310 | 6 | 0.00 |
| 10 | 07/13 | 15:00 | 82 | 56 | 42 | 30.28 | 130 | 1 | 0.00 |
| 11 | 07/13 | 14:00 | 82 | 56 | 42 | 30.28 | 110 | 0 | 0.00 |
| 12 | 07/13 | 13:00 | 82 | 56 | 42 | 30.28 | 250 | 1 | 0.00 |
| 13 | 07/13 | 12:00 | 80 | 56 | 45 | 30.29 | 330 | 4 | 0.00 |
| 14 | 07/13 | 11:00 | 76 | 56 | 52 | 30.29 | 70 | 1 | 0.00 |
| 15 | 07/13 | 10:00 | 67 | 56 | 70 | 30.30 | 340 | 0 | 0.00 |
| 16 | 07/13 | 09:00 | 62 | 55 | 80 | 30.30 | 50 | 0 | 0.00 |
| 17 | 07/13 | 08:00 | 59 | 55 | 88 | 30.31 | 30 | 2 | 0.00 |
| 18 | 07/13 | 07:00 | 58 | 54 | 87 | 30.31 | 340 | 0 | 0.00 |
| 19 | 07/13 | 06:00 | 58 | 53 | 85 | 30.36 | 340 | 0 | 0.00 |
| 20 | 07/13 | 05:00 | 59 | 54 | 84 | 30.37 | 340 | 0 | 0.00 |
| 21 | 07/13 | 04:00 | 60 | 55 | 85 | 30.36 | 340 | 0 | 0.00 |
| 22 | 07/13 | 03:00 | 61 | 56 | 84 | 30.37 | 340 | 0 | 0.00 |
| 23 | 07/13 | 02:00 | 62 | 56 | 81 | 30.40 | 340 | 0 | 0.00 |
| 24 | 07/13 | 01:00 | 63 | 57 | 81 | 30.40 | 340 | 0 | 0.00 |